Time;durP1;ratioP1;P1;durP2;ratioP2;P2;SDS_P1;SDS_P2;PMS_P1;PMS_P2;Temp;Humidity;BMP_temperature;BMP_pressure;BME280_temperature;BME280_humidity;BME280_pressure;Samples;Min_cycle;Max_cycle;Signal;HPM_P1;HPM_P2
2023/05/19 00:01:13;;;;;;;7.38;3.42;;;9.40;99.90;;;;;;4996892;28;20329;-74
2023/05/19 00:03:52;;;;;;;10.27;3.53;;;9.40;99.90;;;;;;5020913;28;20389;-74
2023/05/19 00:06:25;;;;;;;10.05;3.63;;;9.40;99.90;;;;;;5000806;28;20027;-74
2023/05/19 00:09:00;;;;;;;7.90;2.33;;;9.30;99.90;;;;;;5010317;28;20048;-73
2023/05/19 00:11:27;;;;;;;11.50;4.40;;;9.30;99.90;;;;;;4988323;28;20871;-74
2023/05/19 00:13:57;;;;;;;10.88;3.17;;;9.20;99.90;;;;;;4979012;28;20484;-73
2023/05/19 00:16:25;;;;;;;6.70;3.17;;;9.20;99.90;;;;;;5009881;28;20427;-72
2023/05/19 00:18:52;;;;;;;7.95;2.25;;;9.20;99.90;;;;;;5008583;28;20563;-73
2023/05/19 00:21:18;;;;;;;9.45;3.08;;;9.20;99.90;;;;;;5010905;28;20499;-74
2023/05/19 00:23:44;;;;;;;5.63;2.33;;;9.10;99.90;;;;;;5005758;28;20033;-74
2023/05/19 00:26:11;;;;;;;7.10;2.50;;;9.10;99.90;;;;;;5023467;28;20029;-74
2023/05/19 00:28:38;;;;;;;6.90;3.22;;;9.10;99.90;;;;;;4995429;28;20045;-73
2023/05/19 00:31:05;;;;;;;6.18;2.90;;;9.10;99.90;;;;;;5002993;28;20567;-73
2023/05/19 00:33:33;;;;;;;7.95;2.90;;;9.00;99.90;;;;;;5012087;28;20036;-73
2023/05/19 00:36:03;;;;;;;9.35;3.03;;;9.00;99.90;;;;;;5008595;28;20048;-73
2023/05/19 00:38:31;;;;;;;9.82;2.92;;;9.00;99.90;;;;;;5009849;28;20503;-73
2023/05/19 00:40:58;;;;;;;10.20;4.07;;;9.00;99.90;;;;;;5002860;28;20107;-74
2023/05/19 00:43:25;;;;;;;11.85;3.53;;;8.90;99.90;;;;;;5004212;28;20025;-74
2023/05/19 00:45:51;;;;;;;5.85;2.53;;;9.00;99.90;;;;;;5020089;28;20044;-73
2023/05/19 00:48:18;;;;;;;7.05;3.25;;;8.90;99.90;;;;;;5016862;28;20475;-73
2023/05/19 00:50:45;;;;;;;8.55;3.08;;;8.90;99.90;;;;;;5003368;28;20999;-73
2023/05/19 00:53:15;;;;;;;10.38;4.55;;;8.90;99.90;;;;;;4997899;28;20033;-74
2023/05/19 00:55:41;;;;;;;4.70;2.65;;;8.80;99.90;;;;;;4995700;28;20044;-73
2023/05/19 00:58:10;;;;;;;8.18;3.47;;;8.80;99.90;;;;;;5010318;28;20032;-74
2023/05/19 01:00:38;;;;;;;7.97;3.38;;;8.80;99.90;;;;;;5003188;28;20388;-74
2023/05/19 01:03:09;;;;;;;8.05;4.03;;;8.70;99.90;;;;;;5015431;28;20032;-73
2023/05/19 01:05:46;;;;;;;7.15;2.60;;;8.70;99.90;;;;;;4997495;28;20037;-73
2023/05/19 01:08:13;;;;;;;6.60;3.28;;;8.70;99.90;;;;;;4999259;28;20049;-74
2023/05/19 01:10:39;;;;;;;8.75;3.35;;;8.70;99.90;;;;;;5003498;28;20051;-73
2023/05/19 01:13:06;;;;;;;5.03;2.55;;;8.70;99.90;;;;;;5007845;28;20302;-74
2023/05/19 01:15:44;;;;;;;9.05;4.05;;;8.60;99.90;;;;;;5009287;28;20048;-73
2023/05/19 01:18:15;;;;;;;7.18;3.08;;;8.60;99.90;;;;;;4990936;28;20494;-73
2023/05/19 01:20:51;;;;;;;10.15;3.88;;;8.60;99.90;;;;;;5002002;28;20044;-73
2023/05/19 01:23:38;;;;;;;9.48;4.25;;;8.50;99.90;;;;;;5014641;28;20491;-73
2023/05/19 01:26:40;;;;;;;9.40;3.60;;;8.60;99.90;;;;;;5004445;28;20052;-74
2023/05/19 01:29:28;;;;;;;9.45;3.63;;;8.50;99.90;;;;;;5008462;28;20048;-73
2023/05/19 01:31:58;;;;;;;8.25;2.95;;;8.50;99.90;;;;;;5008178;28;20041;-74
2023/05/19 01:34:26;;;;;;;6.45;3.25;;;8.40;99.90;;;;;;5008971;28;20367;-75
2023/05/19 01:36:54;;;;;;;10.82;5.15;;;8.40;99.90;;;;;;4992356;28;20480;-75
2023/05/19 01:39:22;;;;;;;8.77;3.28;;;8.40;99.90;;;;;;4989354;28;20628;-74
2023/05/19 01:41:49;;;;;;;9.98;3.70;;;8.40;99.90;;;;;;4987349;28;20037;-74
2023/05/19 01:44:16;;;;;;;8.00;2.97;;;8.40;99.90;;;;;;4999662;28;20025;-74
2023/05/19 01:46:44;;;;;;;6.97;3.22;;;8.40;99.90;;;;;;5018349;28;20029;-74
2023/05/19 01:49:12;;;;;;;8.13;3.63;;;8.40;99.90;;;;;;5013656;28;20048;-74
2023/05/19 01:51:39;;;;;;;6.30;3.00;;;8.30;99.90;;;;;;4990036;28;20044;-74
2023/05/19 01:54:05;;;;;;;8.32;4.18;;;8.30;99.90;;;;;;5008736;28;20032;-74
2023/05/19 01:56:51;;;;;;;7.30;3.67;;;8.30;99.90;;;;;;5010074;28;20043;-75
2023/05/19 02:00:07;;;;;;;10.68;3.75;;;8.30;99.90;;;;;;4988893;28;20041;-74
2023/05/19 02:02:47;;;;;;;16.52;4.47;;;8.20;99.90;;;;;;5002556;28;20052;-74
2023/05/19 02:05:28;;;;;;;13.00;5.03;;;8.20;99.90;;;;;;5019403;28;20029;-74
2023/05/19 02:08:39;;;;;;;11.55;4.05;;;8.10;99.90;;;;;;5018874;28;20045;-74
2023/05/19 02:11:21;;;;;;;7.53;3.70;;;8.10;99.90;;;;;;4984712;28;20076;-74
2023/05/19 02:13:52;;;;;;;7.60;3.75;;;8.10;99.90;;;;;;4990918;28;20032;-74
2023/05/19 02:16:24;;;;;;;10.55;3.92;;;8.00;99.90;;;;;;5006171;28;20028;-74
2023/05/19 02:18:52;;;;;;;8.00;3.72;;;8.00;99.90;;;;;;4976071;28;20349;-73
2023/05/19 02:21:19;;;;;;;13.10;5.15;;;8.00;99.90;;;;;;5003770;28;20025;-74
2023/05/19 02:23:46;;;;;;;10.18;4.65;;;8.00;99.90;;;;;;5014230;28;20040;-74
2023/05/19 02:26:12;;;;;;;8.32;4.13;;;7.90;99.90;;;;;;5002101;28;20025;-74
2023/05/19 02:28:38;;;;;;;8.52;4.28;;;7.90;99.90;;;;;;5006316;28;20723;-74
2023/05/19 02:31:08;;;;;;;10.30;4.05;;;7.90;99.90;;;;;;5006221;28;20033;-74
2023/05/19 02:33:35;;;;;;;9.93;5.80;;;7.90;99.90;;;;;;4989595;28;20029;-73
2023/05/19 02:36:02;;;;;;;9.20;5.15;;;7.90;99.90;;;;;;5008607;28;20037;-74
2023/05/19 02:38:28;;;;;;;10.80;4.47;;;7.90;99.90;;;;;;4992213;28;20037;-73
2023/05/19 02:40:54;;;;;;;9.82;6.00;;;7.80;99.90;;;;;;5014342;28;20044;-74
2023/05/19 02:43:20;;;;;;;10.77;4.22;;;7.80;99.90;;;;;;5010154;28;20024;-74
2023/05/19 02:45:47;;;;;;;10.10;5.63;;;7.80;99.90;;;;;;5014615;28;20029;-74
2023/05/19 02:48:13;;;;;;;10.35;6.20;;;7.80;99.90;;;;;;5019859;28;22191;-74
2023/05/19 02:50:39;;;;;;;11.32;4.82;;;7.80;99.90;;;;;;5010881;28;21102;-74
2023/05/19 02:53:06;;;;;;;9.38;5.28;;;7.80;99.90;;;;;;5007266;28;20033;-74
2023/05/19 02:55:32;;;;;;;9.60;4.88;;;7.70;99.90;;;;;;5008470;28;20395;-74
2023/05/19 02:57:58;;;;;;;8.32;4.05;;;7.70;99.90;;;;;;5008861;28;20020;-74
2023/05/19 03:00:25;;;;;;;5.22;3.40;;;7.70;99.90;;;;;;5008249;28;20661;-74
2023/05/19 03:02:51;;;;;;;9.48;5.40;;;7.70;99.90;;;;;;4992588;28;20037;-74
2023/05/19 03:05:18;;;;;;;12.07;5.05;;;7.70;99.90;;;;;;4999685;28;20033;-74
2023/05/19 03:07:45;;;;;;;10.25;4.40;;;7.70;99.90;;;;;;5024330;28;20036;-74
2023/05/19 03:10:11;;;;;;;11.68;4.80;;;7.70;99.90;;;;;;5017971;28;20526;-74
2023/05/19 03:12:38;;;;;;;7.15;3.88;;;7.70;99.90;;;;;;5000649;28;20044;-74
2023/05/19 03:15:05;;;;;;;9.27;4.30;;;7.70;99.90;;;;;;5013376;28;20044;-74
2023/05/19 03:17:32;;;;;;;6.78;3.90;;;7.60;99.90;;;;;;5012446;28;20037;-74
2023/05/19 03:20:00;;;;;;;9.88;4.65;;;7.70;99.90;;;;;;5011465;28;20036;-75
2023/05/19 03:22:26;;;;;;;8.75;5.05;;;7.70;99.90;;;;;;4994117;28;20025;-74
2023/05/19 03:24:53;;;;;;;9.07;5.00;;;7.70;99.90;;;;;;4997095;28;20037;-73
2023/05/19 03:27:20;;;;;;;9.98;4.80;;;7.70;99.90;;;;;;5019948;28;20032;-74
2023/05/19 03:29:46;;;;;;;8.55;4.68;;;7.70;99.90;;;;;;5001447;28;20742;-74
2023/05/19 03:32:13;;;;;;;11.07;5.38;;;7.70;99.90;;;;;;5000702;28;20287;-74
2023/05/19 03:34:40;;;;;;;12.15;4.85;;;7.60;99.90;;;;;;4995773;28;20755;-73
2023/05/19 03:37:07;;;;;;;10.20;5.50;;;7.70;99.90;;;;;;5028225;28;20577;-74
2023/05/19 03:39:36;;;;;;;9.75;5.13;;;7.70;99.90;;;;;;5007927;28;20029;-74
2023/05/19 03:42:02;;;;;;;12.30;4.70;;;7.70;99.90;;;;;;4991340;28;20037;-74
2023/05/19 03:44:29;;;;;;;10.57;6.13;;;7.70;99.90;;;;;;5012651;28;20044;-74
2023/05/19 03:46:55;;;;;;;10.65;4.65;;;7.70;99.90;;;;;;5014548;28;20396;-74
2023/05/19 03:49:53;;;;;;;12.63;5.80;;;7.70;99.90;;;;;;4986427;28;20059;-74
2023/05/19 03:52:45;;;;;;;10.05;4.45;;;7.70;99.90;;;;;;5017908;28;20037;-74
2023/05/19 03:55:28;;;;;;;11.55;5.10;;;7.70;99.90;;;;;;5010857;28;20037;-74
2023/05/19 03:57:55;;;;;;;11.20;6.28;;;7.70;99.90;;;;;;5010612;28;20041;-74
2023/05/19 04:00:22;;;;;;;10.52;5.03;;;7.70;99.90;;;;;;4990834;28;20044;-74
2023/05/19 04:02:50;;;;;;;7.15;3.58;;;7.70;99.90;;;;;;4992522;28;20041;-74
2023/05/19 04:05:16;;;;;;;11.68;4.50;;;7.80;99.90;;;;;;5012571;28;20033;-74
2023/05/19 04:07:45;;;;;;;11.35;5.93;;;7.70;99.90;;;;;;5013493;28;20044;-75
2023/05/19 04:10:12;;;;;;;10.77;5.40;;;7.80;99.90;;;;;;5015318;28;20041;-74
2023/05/19 04:12:38;;;;;;;14.57;6.35;;;7.80;99.90;;;;;;5002043;28;20067;-74
2023/05/19 04:15:05;;;;;;;11.55;7.72;;;7.80;99.90;;;;;;5015742;28;20051;-74
2023/05/19 04:17:31;;;;;;;10.80;5.15;;;7.90;99.90;;;;;;5012328;28;20043;-74
2023/05/19 04:19:58;;;;;;;9.63;5.70;;;7.90;99.90;;;;;;5007030;28;20068;-74
2023/05/19 04:22:24;;;;;;;10.80;6.53;;;7.90;99.90;;;;;;5009217;28;20071;-74
2023/05/19 04:24:51;;;;;;;9.43;4.95;;;8.00;99.90;;;;;;5010425;28;20416;-74
2023/05/19 04:27:18;;;;;;;9.13;5.53;;;8.00;99.90;;;;;;5013603;28;20056;-74
2023/05/19 04:29:47;;;;;;;13.48;5.53;;;8.10;99.90;;;;;;5011948;28;20033;-74
2023/05/19 04:32:16;;;;;;;13.98;6.20;;;8.10;99.90;;;;;;5017220;28;20742;-74
2023/05/19 04:34:45;;;;;;;10.32;5.63;;;8.20;99.90;;;;;;5016265;28;20044;-74
2023/05/19 04:37:17;;;;;;;11.70;5.43;;;8.30;99.90;;;;;;5011998;28;20028;-74
2023/05/19 04:39:44;;;;;;;8.90;4.93;;;8.40;99.90;;;;;;5007422;28;20509;-74
2023/05/19 04:42:12;;;;;;;10.32;5.40;;;8.40;99.90;;;;;;4990385;28;20045;-74
2023/05/19 04:44:39;;;;;;;10.55;5.50;;;8.50;99.90;;;;;;4994236;28;20040;-74
2023/05/19 04:47:09;;;;;;;9.57;5.07;;;8.60;99.90;;;;;;5010295;28;20048;-73
2023/05/19 04:49:38;;;;;;;9.07;5.38;;;8.70;99.90;;;;;;5024987;28;20032;-74
2023/05/19 04:52:06;;;;;;;7.70;4.35;;;8.80;99.90;;;;;;5017539;28;20621;-74
2023/05/19 04:54:34;;;;;;;8.90;5.07;;;8.80;99.90;;;;;;5033714;28;20056;-75
2023/05/19 04:57:00;;;;;;;9.07;5.03;;;8.90;99.90;;;;;;5014994;28;20028;-74
2023/05/19 04:59:29;;;;;;;9.55;5.28;;;9.00;99.90;;;;;;5007901;28;20049;-75
2023/05/19 05:01:56;;;;;;;5.28;3.58;;;9.10;99.90;;;;;;5008114;28;20380;-74
2023/05/19 05:04:24;;;;;;;7.47;4.60;;;9.30;99.90;;;;;;4993734;28;20028;-74
2023/05/19 05:06:51;;;;;;;8.68;4.03;;;9.30;99.90;;;;;;4993699;28;20037;-74
2023/05/19 05:09:18;;;;;;;10.95;5.72;;;9.40;99.90;;;;;;5009183;28;20058;-74
2023/05/19 05:11:45;;;;;;;10.32;5.13;;;9.50;99.90;;;;;;5018639;28;20025;-74
2023/05/19 05:14:12;;;;;;;10.82;5.20;;;9.70;99.90;;;;;;4986573;28;20542;-75
2023/05/19 05:16:39;;;;;;;7.45;4.07;;;9.90;99.90;;;;;;4999565;28;20705;-74
2023/05/19 05:19:08;;;;;;;11.32;4.60;;;10.00;99.90;;;;;;5007857;28;20036;-75
2023/05/19 05:21:34;;;;;;;6.78;2.70;;;10.00;99.90;;;;;;4976633;28;20033;-75
2023/05/19 05:24:01;;;;;;;6.40;3.83;;;10.10;99.90;;;;;;5011758;28;20037;-76
2023/05/19 05:26:33;;;;;;;8.45;4.28;;;10.20;99.90;;;;;;5010237;28;20116;-75
2023/05/19 05:29:00;;;;;;;6.18;3.30;;;10.20;99.90;;;;;;5008537;28;20037;-75
2023/05/19 05:31:27;;;;;;;9.55;3.92;;;10.30;99.90;;;;;;5016095;28;20663;-74
2023/05/19 05:33:54;;;;;;;5.05;2.78;;;10.30;99.90;;;;;;5023454;28;20035;-76
2023/05/19 05:36:24;;;;;;;7.40;3.08;;;10.40;99.90;;;;;;5005176;28;20040;-74
2023/05/19 05:38:50;;;;;;;8.88;2.80;;;10.50;99.90;;;;;;5024801;28;20048;-75
2023/05/19 05:41:17;;;;;;;9.70;3.25;;;10.70;99.90;;;;;;5006709;28;20032;-74
2023/05/19 05:43:45;;;;;;;5.88;2.90;;;10.90;99.90;;;;;;5023160;28;20028;-74
2023/05/19 05:46:12;;;;;;;7.18;2.83;;;11.00;99.90;;;;;;5010737;28;20045;-76
2023/05/19 05:48:40;;;;;;;10.88;5.97;;;11.20;99.90;;;;;;5007802;28;20040;-74
2023/05/19 05:51:07;;;;;;;8.18;3.97;;;11.40;99.90;;;;;;4990770;28;20049;-74
2023/05/19 05:53:41;;;;;;;13.93;5.85;;;11.60;99.90;;;;;;5023384;28;20056;-75
2023/05/19 05:56:09;;;;;;;8.80;4.32;;;11.80;99.90;;;;;;5001578;28;20032;-74
2023/05/19 05:58:43;;;;;;;9.95;2.90;;;11.90;99.90;;;;;;5013858;28;20048;-74
2023/05/19 06:01:10;;;;;;;8.77;2.70;;;12.10;99.90;;;;;;4990352;28;20041;-77
2023/05/19 06:03:38;;;;;;;7.43;2.80;;;12.30;99.90;;;;;;4995685;28;20021;-73
2023/05/19 06:06:07;;;;;;;5.97;2.30;;;12.40;99.90;;;;;;4994521;28;20533;-76
2023/05/19 06:08:34;;;;;;;8.25;3.00;;;12.70;99.90;;;;;;5009229;28;20032;-75
2023/05/19 06:11:00;;;;;;;5.15;1.77;;;12.90;99.90;;;;;;5004281;28;20044;-73
2023/05/19 06:13:29;;;;;;;10.32;3.13;;;13.20;99.90;;;;;;4986636;28;20047;-71
2023/05/19 06:15:55;;;;;;;5.57;2.42;;;13.50;99.90;;;;;;5021623;28;23030;-73
2023/05/19 06:18:30;;;;;;;6.47;2.40;;;13.50;99.90;;;;;;5015843;28;20040;-73
2023/05/19 06:20:56;;;;;;;6.32;2.20;;;13.40;99.90;;;;;;4983830;28;20401;-71
2023/05/19 06:23:24;;;;;;;4.18;1.23;;;13.40;99.90;;;;;;4996313;28;20044;-74
2023/05/19 06:25:50;;;;;;;4.10;1.80;;;13.60;99.90;;;;;;5009680;28;20041;-74
2023/05/19 06:28:17;;;;;;;6.47;1.92;;;13.70;99.90;;;;;;4995079;28;20044;-73
2023/05/19 06:30:43;;;;;;;4.38;1.25;;;14.00;99.90;;;;;;5003707;28;20115;-73
2023/05/19 06:33:19;;;;;;;7.50;1.98;;;14.30;99.90;;;;;;4997046;28;20039;-74
2023/05/19 06:35:45;;;;;;;5.72;1.45;;;14.60;99.90;;;;;;5024313;28;20037;-72
2023/05/19 06:38:12;;;;;;;6.85;1.55;;;14.90;99.90;;;;;;5026528;28;21503;-73
2023/05/19 06:40:39;;;;;;;5.43;1.50;;;15.20;99.90;;;;;;5013340;28;20037;-73
2023/05/19 06:43:05;;;;;;;4.22;0.88;;;15.50;99.90;;;;;;5012206;28;20036;-72
2023/05/19 06:45:52;;;;;;;7.65;1.30;;;15.60;99.90;;;;;;5012992;28;20048;-76
2023/05/19 06:48:18;;;;;;;5.38;1.50;;;15.50;99.90;;;;;;5015152;28;20133;-74
2023/05/19 06:50:45;;;;;;;8.88;2.40;;;15.30;99.90;;;;;;5005628;28;20099;-73
2023/05/19 06:53:12;;;;;;;6.78;1.42;;;15.20;99.90;;;;;;4998977;28;20685;-76
2023/05/19 06:55:38;;;;;;;4.57;1.00;;;15.20;99.90;;;;;;5023857;28;20055;-75
2023/05/19 06:58:05;;;;;;;4.43;1.20;;;15.10;99.90;;;;;;4991279;28;20916;-75
2023/05/19 07:00:31;;;;;;;4.38;0.85;;;15.10;99.90;;;;;;4991824;28;20044;-76
2023/05/19 07:02:58;;;;;;;4.00;0.90;;;15.10;99.90;;;;;;5003918;28;20044;-72
2023/05/19 07:05:24;;;;;;;4.55;1.23;;;15.20;99.90;;;;;;4991401;28;20041;-75
2023/05/19 07:07:55;;;;;;;5.82;1.25;;;15.40;99.90;;;;;;5006553;28;20039;-74
2023/05/19 07:10:34;;;;;;;7.70;2.28;;;15.50;99.90;;;;;;4988957;28;20045;-73
2023/05/19 07:13:00;;;;;;;6.78;1.55;;;15.70;99.90;;;;;;4972678;28;20830;-76
2023/05/19 07:15:30;;;;;;;7.18;1.40;;;15.80;99.90;;;;;;4997174;28;20049;-76
2023/05/19 07:17:58;;;;;;;5.60;1.48;;;16.00;99.90;;;;;;5018360;28;20060;-73
2023/05/19 07:20:25;;;;;;;3.75;0.60;;;16.20;99.90;;;;;;4998189;28;20072;-72
2023/05/19 07:22:51;;;;;;;4.68;1.42;;;16.30;99.90;;;;;;5004777;28;20871;-72
2023/05/19 07:25:17;;;;;;;5.20;0.85;;;16.20;99.50;;;;;;5009369;28;20033;-74
2023/05/19 07:27:46;;;;;;;7.03;0.93;;;16.10;99.40;;;;;;4988309;28;20037;-72
2023/05/19 07:30:13;;;;;;;3.97;0.85;;;16.00;99.30;;;;;;4985510;28;20044;-73
2023/05/19 07:32:39;;;;;;;4.28;1.00;;;15.90;99.20;;;;;;4982709;28;20045;-74
2023/05/19 07:35:06;;;;;;;6.57;1.30;;;15.80;99.50;;;;;;5008523;28;21021;-72
2023/05/19 07:37:32;;;;;;;5.22;0.60;;;15.80;99.80;;;;;;4995354;28;20033;-72
2023/05/19 07:39:58;;;;;;;6.65;0.80;;;15.80;99.80;;;;;;5015018;28;20543;-73
2023/05/19 07:42:25;;;;;;;5.75;0.93;;;15.90;99.90;;;;;;5012927;28;20040;-76
2023/05/19 07:44:51;;;;;;;3.50;0.80;;;16.00;99.50;;;;;;5020645;28;20041;-78
2023/05/19 07:47:17;;;;;;;3.92;0.73;;;16.20;99.30;;;;;;5007182;28;20049;-74
2023/05/19 07:49:44;;;;;;;5.28;1.40;;;16.40;99.20;;;;;;5007505;28;20032;-73
2023/05/19 07:52:10;;;;;;;7.28;1.20;;;16.70;98.80;;;;;;5004502;28;20496;-75
2023/05/19 07:54:39;;;;;;;7.80;1.45;;;16.90;98.40;;;;;;4993448;28;20033;-74
2023/05/19 07:57:26;;;;;;;3.92;0.70;;;17.00;97.80;;;;;;5013372;28;20031;-75
2023/05/19 07:59:52;;;;;;;5.22;1.10;;;17.30;97.60;;;;;;5001231;28;20510;-75
2023/05/19 08:02:18;;;;;;;4.03;0.90;;;17.50;97.40;;;;;;5017026;28;20029;-74
2023/05/19 08:05:10;;;;;;;6.13;0.80;;;17.70;97.00;;;;;;4995775;28;20309;-73
2023/05/19 08:07:37;;;;;;;3.77;0.90;;;17.80;96.30;;;;;;5005622;28;20040;-73
2023/05/19 08:10:04;;;;;;;4.50;0.70;;;17.90;95.90;;;;;;4988226;28;20044;-75
2023/05/19 08:12:32;;;;;;;4.10;0.70;;;18.00;95.90;;;;;;5019481;28;20115;-75
2023/05/19 08:14:59;;;;;;;6.50;0.85;;;18.10;95.10;;;;;;5011157;28;20485;-77
2023/05/19 08:17:25;;;;;;;4.82;0.82;;;18.20;94.70;;;;;;5010562;28;20040;-74
2023/05/19 08:19:52;;;;;;;5.13;1.00;;;18.30;94.20;;;;;;5017764;28;20040;-74
2023/05/19 08:22:27;;;;;;;5.00;0.80;;;18.40;94.20;;;;;;5017969;28;20021;-74
2023/05/19 08:24:53;;;;;;;5.35;1.20;;;18.60;93.90;;;;;;5018753;28;20021;-77
2023/05/19 08:27:19;;;;;;;5.40;0.95;;;18.60;92.80;;;;;;5011001;28;20519;-75
2023/05/19 08:29:55;;;;;;;8.63;1.30;;;18.60;92.60;;;;;;5009219;28;20032;-75
2023/05/19 08:32:21;;;;;;;7.28;0.90;;;18.70;92.20;;;;;;5004680;28;20056;-76
2023/05/19 08:34:50;;;;;;;3.20;0.70;;;18.70;91.50;;;;;;5010479;28;20048;-77
2023/05/19 08:37:16;;;;;;;4.43;0.80;;;18.70;91.40;;;;;;5026810;28;20578;-76
2023/05/19 08:39:42;;;;;;;5.45;0.90;;;18.80;90.80;;;;;;5012716;28;20021;-74
2023/05/19 08:42:09;;;;;;;6.57;0.75;;;18.90;90.50;;;;;;5015990;28;20032;-75
2023/05/19 08:44:36;;;;;;;3.95;0.88;;;19.00;90.30;;;;;;5021128;28;20574;-76
2023/05/19 08:47:04;;;;;;;3.65;0.70;;;19.20;90.20;;;;;;5009872;28;20037;-75
2023/05/19 08:49:35;;;;;;;9.43;1.45;;;19.20;89.30;;;;;;5005555;28;20040;-75
2023/05/19 08:52:30;;;;;;;4.75;1.05;;;19.40;86.80;;;;;;5007100;28;20056;-74
2023/05/19 08:55:10;;;;;;;4.28;0.80;;;19.40;87.60;;;;;;5008613;28;20056;-74
2023/05/19 08:57:37;;;;;;;4.97;0.65;;;19.60;88.20;;;;;;5012379;28;20036;-76
2023/05/19 09:00:08;;;;;;;5.97;0.82;;;19.80;88.60;;;;;;5016274;28;20025;-77
2023/05/19 09:02:37;;;;;;;4.30;0.70;;;20.00;86.00;;;;;;5017275;28;20021;-77
2023/05/19 09:05:07;;;;;;;18.08;10.93;;;20.10;84.90;;;;;;5016317;28;20192;-80
2023/05/19 09:07:36;;;;;;;5.97;1.65;;;20.20;84.80;;;;;;4992475;28;20068;-77
2023/05/19 09:10:03;;;;;;;5.97;0.95;;;20.20;82.80;;;;;;5006908;28;20041;-77
2023/05/19 09:12:30;;;;;;;2.80;0.68;;;20.10;82.00;;;;;;5005103;28;20496;-75
2023/05/19 09:14:57;;;;;;;6.80;0.80;;;20.00;80.20;;;;;;5006620;28;20033;-75
2023/05/19 09:17:23;;;;;;;7.20;0.93;;;20.00;79.60;;;;;;5009191;28;20032;-74
2023/05/19 09:19:50;;;;;;;4.00;0.70;;;20.00;78.90;;;;;;5013386;28;20535;-75
2023/05/19 09:22:18;;;;;;;3.38;0.57;;;20.10;79.40;;;;;;5015332;28;20052;-75
2023/05/19 09:24:44;;;;;;;3.47;0.90;;;20.30;77.80;;;;;;5021170;28;20036;-75
2023/05/19 09:27:14;;;;;;;2.40;0.60;;;20.30;77.00;;;;;;5007452;28;20041;-76
2023/05/19 09:29:41;;;;;;;4.28;0.70;;;20.40;78.10;;;;;;5004492;28;20060;-72
2023/05/19 09:32:08;;;;;;;2.60;0.63;;;20.60;78.40;;;;;;5001395;28;20051;-72
2023/05/19 09:34:40;;;;;;;2.60;0.55;;;20.90;78.10;;;;;;5004821;28;20052;-74
2023/05/19 09:37:06;;;;;;;;;;;21.10;77.50;;;;;;4991466;28;20357;-75
2023/05/19 09:39:33;;;;;;;9.82;1.30;;;21.30;75.10;;;;;;5022620;28;19916;-74
2023/05/19 09:42:04;;;;;;;7.53;0.85;;;21.20;72.20;;;;;;5013496;28;20048;-74
2023/05/19 09:44:31;;;;;;;2.90;1.20;;;21.20;72.20;;;;;;5019623;28;20068;-73
2023/05/19 09:46:58;;;;;;;5.70;1.73;;;21.20;73.00;;;;;;4995810;28;20043;-71
2023/05/19 09:49:30;;;;;;;4.50;1.15;;;21.30;73.70;;;;;;5005685;28;20033;-72
2023/05/19 09:51:58;;;;;;;5.38;0.80;;;21.50;71.80;;;;;;5002670;28;20064;-72
2023/05/19 09:54:30;;;;;;;3.85;0.70;;;21.40;71.40;;;;;;5007986;28;20029;-69
2023/05/19 09:56:57;;;;;;;4.97;0.80;;;21.50;72.10;;;;;;5007122;28;20469;-72
2023/05/19 09:59:25;;;;;;;3.60;0.73;;;21.40;71.70;;;;;;5005211;28;20052;-71
2023/05/19 10:01:54;;;;;;;4.15;0.65;;;21.40;71.70;;;;;;4990628;28;20048;-71
2023/05/19 10:04:23;;;;;;;4.50;0.85;;;21.50;72.20;;;;;;5019358;28;20037;-70
2023/05/19 10:06:52;;;;;;;5.05;0.88;;;21.60;70.30;;;;;;5017043;28;21181;-71
2023/05/19 10:09:24;;;;;;;3.38;0.60;;;21.50;69.30;;;;;;5004010;28;20037;-70
2023/05/19 10:11:55;;;;;;;7.55;0.70;;;21.40;69.80;;;;;;4996886;28;20041;-72
2023/05/19 10:14:28;;;;;;;2.47;0.60;;;21.40;70.20;;;;;;4989561;28;20056;-74
2023/05/19 10:16:56;;;;;;;6.57;1.38;;;21.40;69.60;;;;;;5004465;28;20887;-72
2023/05/19 10:19:25;;;;;;;5.63;1.50;;;21.40;68.90;;;;;;5005317;28;20357;-74
2023/05/19 10:21:52;;;;;;;2.25;0.60;;;21.30;68.70;;;;;;5003436;28;20047;-71
2023/05/19 10:24:20;;;;;;;7.25;2.47;;;21.40;69.70;;;;;;5015947;28;20051;-70
2023/05/19 10:26:54;;;;;;;4.47;1.38;;;21.70;70.10;;;;;;5016874;28;20041;-70
2023/05/19 10:29:44;;;;;;;4.93;1.10;;;21.90;68.80;;;;;;4982301;28;20052;-74
2023/05/19 10:32:14;;;;;;;3.38;0.70;;;22.00;68.20;;;;;;4999201;28;20032;-71
2023/05/19 10:35:20;;;;;;;4.15;1.02;;;22.00;67.10;;;;;;5005277;28;20452;-70
2023/05/19 10:37:56;;;;;;;5.07;0.95;;;22.10;67.30;;;;;;5005196;28;20388;-71
2023/05/19 10:40:37;;;;;;;18.30;12.10;;;22.20;65.90;;;;;;4999543;28;20476;-73
2023/05/19 10:43:28;;;;;;;5.90;2.10;;;22.30;65.80;;;;;;5005591;28;20021;-76
2023/05/19 10:45:56;;;;;;;4.68;1.30;;;22.40;66.00;;;;;;5018992;28;20021;-74
2023/05/19 10:48:23;;;;;;;4.25;0.95;;;22.70;65.00;;;;;;5017632;28;20045;-74
2023/05/19 10:50:53;;;;;;;6.22;2.17;;;22.70;64.20;;;;;;5002816;28;20060;-71
2023/05/19 10:53:21;;;;;;;6.65;3.03;;;22.70;64.60;;;;;;5005982;28;20103;-70
2023/05/19 10:55:54;;;;;;;5.15;2.03;;;22.80;64.30;;;;;;5002361;28;20503;-75
2023/05/19 10:58:49;;;;;;;3.50;1.00;;;23.00;64.10;;;;;;5001794;28;20025;-71
2023/05/19 11:01:17;;;;;;;4.75;0.93;;;23.40;64.10;;;;;;4995167;28;20041;-73
2023/05/19 11:03:48;;;;;;;12.10;6.07;;;23.60;63.80;;;;;;5001427;28;20983;-72
2023/05/19 11:06:18;;;;;;;11.57;5.70;;;24.00;63.90;;;;;;5010491;28;20648;-72
2023/05/19 11:08:46;;;;;;;4.80;1.20;;;24.40;62.10;;;;;;5016234;28;20029;-71
2023/05/19 11:11:16;;;;;;;3.45;1.02;;;24.30;61.60;;;;;;5004476;28;20524;-72
2023/05/19 11:13:47;;;;;;;4.82;1.08;;;24.40;62.20;;;;;;5001981;28;20041;-71
2023/05/19 11:16:16;;;;;;;3.20;0.88;;;24.80;62.00;;;;;;4984190;28;20033;-72
2023/05/19 11:18:47;;;;;;;5.28;0.93;;;25.10;60.30;;;;;;5004651;28;20037;-71
2023/05/19 11:21:13;;;;;;;6.32;1.30;;;25.30;58.90;;;;;;5001133;28;20067;-73
2023/05/19 11:23:39;;;;;;;4.75;1.20;;;25.50;58.60;;;;;;5010480;28;20055;-70
2023/05/19 11:26:07;;;;;;;4.15;1.45;;;25.80;58.30;;;;;;5005628;28;20037;-71
2023/05/19 11:28:34;;;;;;;5.63;1.25;;;26.20;58.00;;;;;;5028560;28;20036;-72
2023/05/19 11:31:01;;;;;;;4.88;1.13;;;26.70;57.60;;;;;;5005494;28;20586;-72
2023/05/19 11:33:27;;;;;;;4.32;0.80;;;26.90;55.70;;;;;;5001493;28;20055;-73
2023/05/19 11:35:58;;;;;;;2.83;0.70;;;26.90;54.90;;;;;;4989714;28;20033;-72
2023/05/19 11:38:25;;;;;;;3.72;0.65;;;27.00;54.60;;;;;;5005605;28;20663;-79
2023/05/19 11:40:53;;;;;;;6.32;2.03;;;27.30;55.20;;;;;;5000410;28;20287;-74
2023/05/19 11:43:23;;;;;;;6.07;1.90;;;27.70;55.00;;;;;;5010558;28;20028;-72
2023/05/19 11:45:49;;;;;;;9.70;4.05;;;28.10;55.00;;;;;;5010218;28;20041;-76
2023/05/19 11:48:19;;;;;;;4.80;1.23;;;27.60;52.80;;;;;;5012500;28;20044;-71
2023/05/19 11:50:45;;;;;;;4.97;0.95;;;27.20;53.30;;;;;;5009674;28;20342;-72
2023/05/19 11:53:13;;;;;;;5.53;1.48;;;27.30;52.80;;;;;;5016721;28;20028;-74
2023/05/19 11:55:46;;;;;;;6.45;1.33;;;27.70;52.40;;;;;;4993108;28;20037;-71
2023/05/19 11:58:13;;;;;;;3.92;0.90;;;27.90;51.70;;;;;;5014257;28;20924;-74
2023/05/19 12:00:41;;;;;;;6.20;2.50;;;28.00;51.20;;;;;;5010550;28;20041;-72
2023/05/19 12:03:08;;;;;;;5.55;2.22;;;28.10;51.30;;;;;;4992571;28;20633;-73
2023/05/19 12:05:42;;;;;;;5.78;1.70;;;28.20;51.30;;;;;;5008311;28;20040;-70
2023/05/19 12:08:08;;;;;;;4.15;1.52;;;28.60;50.40;;;;;;5015948;28;20040;-72
2023/05/19 12:10:35;;;;;;;4.82;0.70;;;28.40;49.50;;;;;;5018098;28;20488;-73
2023/05/19 12:13:02;;;;;;;5.30;1.00;;;28.30;49.50;;;;;;4999843;28;20052;-74
2023/05/19 12:15:30;;;;;;;3.40;0.80;;;28.80;50.00;;;;;;5008839;28;20040;-71
2023/05/19 12:17:58;;;;;;;3.67;0.88;;;29.50;49.70;;;;;;5010950;28;20400;-72
2023/05/19 12:20:25;;;;;;;3.95;0.90;;;29.90;47.50;;;;;;5005000;28;20388;-73
2023/05/19 12:22:54;;;;;;;4.97;1.10;;;29.80;46.90;;;;;;5003908;28;20029;-73
2023/05/19 12:25:21;;;;;;;3.30;0.70;;;29.90;46.60;;;;;;5023540;28;20036;-71
2023/05/19 12:27:48;;;;;;;3.03;0.80;;;30.10;46.90;;;;;;5007121;28;21168;-72
2023/05/19 12:30:15;;;;;;;3.05;0.80;;;30.10;46.70;;;;;;5013209;28;21097;-74
2023/05/19 12:32:42;;;;;;;3.28;0.70;;;29.90;46.90;;;;;;5015512;28;20048;-74
2023/05/19 12:35:09;;;;;;;4.30;0.93;;;29.80;47.20;;;;;;5014999;28;20029;-72
2023/05/19 12:37:40;;;;;;;6.32;2.35;;;29.40;46.80;;;;;;5008383;28;21276;-72
2023/05/19 12:40:08;;;;;;;3.75;1.30;;;29.40;46.00;;;;;;5009956;28;20033;-73
2023/05/19 12:42:34;;;;;;;3.97;1.67;;;29.60;46.70;;;;;;5005890;28;20042;-73
2023/05/19 12:45:04;;;;;;;4.38;1.70;;;29.90;46.50;;;;;;5006165;28;20041;-72
2023/05/19 12:47:34;;;;;;;6.07;2.53;;;30.20;46.50;;;;;;5008673;28;20079;-72
2023/05/19 12:50:07;;;;;;;5.13;1.60;;;30.00;46.00;;;;;;4996164;28;20029;-72
2023/05/19 12:52:40;;;;;;;5.63;0.82;;;29.10;46.10;;;;;;4995918;28;20033;-73
2023/05/19 12:55:09;;;;;;;4.85;1.60;;;28.40;47.30;;;;;;5016806;28;20053;-73
2023/05/19 12:57:55;;;;;;;7.30;3.00;;;28.70;47.40;;;;;;5010231;28;20028;-74
2023/05/19 13:00:27;;;;;;;6.38;2.45;;;29.00;47.00;;;;;;5006044;28;20590;-72